Time;durP1;ratioP1;P1;durP2;ratioP2;P2;SDS_P1;SDS_P2;PMS_P1;PMS_P2;Temp;Humidity;BMP_temperature;BMP_pressure;BME280_temperature;BME280_humidity;BME280_pressure;Samples;Min_cycle;Max_cycle;Signal;HPM_P1;HPM_P2
2021/03/05 00:00:19;;;;;;;28.60;26.58;;;9.20;84.40;;;;;;5095805;28;20223;-77
2021/03/05 00:02:46;;;;;;;26.98;25.17;;;9.20;84.30;;;;;;5095582;28;20346;-77
2021/03/05 00:05:13;;;;;;;32.40;30.20;;;9.20;84.50;;;;;;5095743;28;20199;-77
2021/03/05 00:07:39;;;;;;;32.55;30.23;;;9.10;82.70;;;;;;5095433;28;20649;-77
2021/03/05 00:10:07;;;;;;;34.05;31.50;;;8.60;82.80;;;;;;5095483;28;20294;-77
2021/03/05 00:12:34;;;;;;;34.45;31.95;;;8.20;84.50;;;;;;5095384;28;20203;-77
2021/03/05 00:15:01;;;;;;;32.42;29.92;;;8.00;84.50;;;;;;5095442;28;20199;-77
2021/03/05 00:17:27;;;;;;;31.73;29.42;;;7.70;85.30;;;;;;5095265;28;20201;-77
2021/03/05 00:19:53;;;;;;;32.13;29.83;;;7.80;84.50;;;;;;5093966;28;20315;-77
2021/03/05 00:22:20;;;;;;;33.92;31.27;;;7.80;84.00;;;;;;5095349;28;20202;-77
2021/03/05 00:24:46;;;;;;;36.10;33.20;;;7.50;84.00;;;;;;5095280;28;20202;-77
2021/03/05 00:27:13;;;;;;;37.40;34.40;;;7.30;83.50;;;;;;5095086;28;20199;-77
2021/03/05 00:29:40;;;;;;;37.65;34.45;;;7.10;85.00;;;;;;5095282;28;20223;-77
2021/03/05 00:32:07;;;;;;;38.42;35.05;;;7.10;85.20;;;;;;5095035;28;20282;-77
2021/03/05 00:34:34;;;;;;;42.17;38.28;;;7.10;84.20;;;;;;5095200;28;20208;-77
2021/03/05 00:37:01;;;;;;;40.00;36.67;;;7.10;84.40;;;;;;5095049;28;20200;-77
2021/03/05 00:39:27;;;;;;;42.55;38.75;;;6.90;84.30;;;;;;5094632;28;20217;-78
2021/03/05 00:41:54;;;;;;;42.53;38.78;;;6.60;85.40;;;;;;5095000;28;20206;-77
2021/03/05 00:44:21;;;;;;;42.80;39.00;;;6.50;86.10;;;;;;5094655;28;20278;-77
2021/03/05 00:46:48;;;;;;;42.08;38.30;;;6.50;86.60;;;;;;5094594;28;20740;-77
2021/03/05 00:49:15;;;;;;;41.80;38.03;;;6.50;87.00;;;;;;5094727;28;20217;-77
2021/03/05 00:51:42;;;;;;;39.50;36.20;;;6.50;87.10;;;;;;5094777;28;20264;-77
2021/03/05 00:54:09;;;;;;;43.05;39.22;;;6.40;86.80;;;;;;5094444;28;20224;-77
2021/03/05 00:56:35;;;;;;;41.40;37.88;;;6.40;86.80;;;;;;5094345;28;20196;-77
2021/03/05 00:59:02;;;;;;;40.70;36.90;;;6.30;86.80;;;;;;5094401;28;20265;-78
2021/03/05 01:01:28;;;;;;;42.97;38.97;;;6.20;87.20;;;;;;5094371;28;20204;-77
2021/03/05 01:03:55;;;;;;;44.28;40.08;;;6.00;87.50;;;;;;5094491;28;20256;-77
2021/03/05 01:06:21;;;;;;;43.78;39.60;;;5.90;88.40;;;;;;5094176;28;20199;-77
2021/03/05 01:08:48;;;;;;;42.63;38.38;;;6.00;88.30;;;;;;5094173;28;20582;-77
2021/03/05 01:11:14;;;;;;;44.65;40.15;;;5.90;88.30;;;;;;5094305;28;20192;-77
2021/03/05 01:13:42;;;;;;;43.78;39.50;;;6.00;88.20;;;;;;5094201;28;20619;-77
2021/03/05 01:16:09;;;;;;;44.47;39.97;;;5.90;87.50;;;;;;5093904;28;20222;-77
2021/03/05 01:18:35;;;;;;;46.50;41.97;;;5.70;87.70;;;;;;5094089;28;20696;-77
2021/03/05 01:21:03;;;;;;;45.25;40.70;;;5.50;88.70;;;;;;5093900;28;20199;-77
2021/03/05 01:23:30;;;;;;;45.65;41.08;;;5.60;89.30;;;;;;5094050;28;20198;-77
2021/03/05 01:25:57;;;;;;;44.20;39.70;;;5.60;88.50;;;;;;5094048;28;20548;-77
2021/03/05 01:28:23;;;;;;;45.90;41.03;;;5.60;88.80;;;;;;5093773;28;20220;-77
2021/03/05 01:30:50;;;;;;;44.72;40.25;;;5.50;88.40;;;;;;5093557;28;20195;-77
2021/03/05 01:33:16;;;;;;;44.55;39.80;;;5.50;88.20;;;;;;5093780;28;20215;-77
2021/03/05 01:35:42;;;;;;;44.97;40.35;;;5.50;88.20;;;;;;5093689;28;20252;-77
2021/03/05 01:38:10;;;;;;;46.85;42.03;;;5.50;88.00;;;;;;5093590;28;20769;-77
2021/03/05 01:40:38;;;;;;;44.83;40.33;;;5.60;87.90;;;;;;5093322;28;20689;-77
2021/03/05 01:43:06;;;;;;;44.15;39.60;;;5.50;87.90;;;;;;5093798;28;20191;-77
2021/03/05 01:45:32;;;;;;;44.20;39.75;;;5.60;88.30;;;;;;5093324;28;20191;-77
2021/03/05 01:48:01;;;;;;;44.65;39.90;;;5.60;87.10;;;;;;5093450;28;20556;-77
2021/03/05 01:50:31;;;;;;;45.95;40.63;;;5.40;86.90;;;;;;5093422;28;20628;-77
2021/03/05 01:52:59;;;;;;;43.75;39.13;;;5.10;88.20;;;;;;5093580;28;20219;-77
2021/03/05 01:55:26;;;;;;;46.00;38.58;;;5.00;88.60;;;;;;5093436;28;20203;-77
2021/03/05 01:57:53;;;;;;;49.45;41.50;;;5.00;88.40;;;;;;5093356;28;20249;-77
2021/03/05 02:00:25;;;;;;;43.55;38.42;;;5.00;88.90;;;;;;5093375;28;20234;-77
2021/03/05 02:02:54;;;;;;;44.42;39.55;;;5.00;89.40;;;;;;5093156;28;20721;-77
2021/03/05 02:05:20;;;;;;;46.67;40.10;;;5.00;89.40;;;;;;5093435;28;20199;-77
2021/03/05 02:07:46;;;;;;;45.95;41.05;;;5.00;89.50;;;;;;5093055;28;20289;-77
2021/03/05 02:10:14;;;;;;;46.47;41.75;;;4.90;89.70;;;;;;5093359;28;20227;-77
2021/03/05 02:12:41;;;;;;;51.92;44.65;;;4.80;89.80;;;;;;5092993;28;20218;-77
2021/03/05 02:15:09;;;;;;;48.20;41.65;;;4.90;89.80;;;;;;5093150;28;20199;-76
2021/03/05 02:17:44;;;;;;;48.50;42.97;;;4.90;89.90;;;;;;5093036;28;20606;-77
2021/03/05 02:20:23;;;;;;;49.22;42.78;;;4.90;89.80;;;;;;5093207;28;20206;-77
2021/03/05 02:23:25;;;;;;;45.15;40.13;;;4.80;89.70;;;;;;5092945;28;20252;-77
2021/03/05 02:26:01;;;;;;;44.40;38.40;;;4.80;90.60;;;;;;5092780;28;20199;-77
2021/03/05 02:29:14;;;;;;;46.45;41.45;;;4.80;89.70;;;;;;5092818;28;20219;-77
2021/03/05 02:31:43;;;;;;;46.80;41.10;;;4.80;89.70;;;;;;5093018;28;20560;-77
2021/03/05 02:34:16;;;;;;;42.92;37.45;;;4.70;90.00;;;;;;5092852;28;20700;-77
2021/03/05 02:36:48;;;;;;;45.25;38.08;;;4.80;90.50;;;;;;5092648;28;20199;-77
2021/03/05 02:39:17;;;;;;;44.25;39.45;;;4.90;90.40;;;;;;5093351;28;20279;-77
2021/03/05 02:41:46;;;;;;;48.45;39.13;;;4.90;89.80;;;;;;5092186;28;20200;-77
2021/03/05 02:44:17;;;;;;;43.00;38.40;;;5.10;88.80;;;;;;5092583;28;20202;-77
2021/03/05 02:46:44;;;;;;;40.90;36.58;;;5.10;88.40;;;;;;5092519;28;20573;-77
2021/03/05 02:49:16;;;;;;;41.58;37.17;;;5.10;88.80;;;;;;5092580;28;20223;-77
2021/03/05 02:51:47;;;;;;;43.92;39.20;;;5.20;88.70;;;;;;5092823;28;20206;-77
2021/03/05 02:54:15;;;;;;;41.53;37.38;;;5.20;87.80;;;;;;5092789;28;20219;-77
2021/03/05 02:56:45;;;;;;;42.70;38.17;;;5.00;87.60;;;;;;5092545;28;20203;-77
2021/03/05 02:59:13;;;;;;;45.30;40.60;;;5.00;88.20;;;;;;5092742;28;20222;-77
2021/03/05 03:01:45;;;;;;;42.40;38.00;;;5.00;88.60;;;;;;5092675;28;20264;-77
2021/03/05 03:04:14;;;;;;;42.72;38.45;;;5.10;88.20;;;;;;5092536;28;20565;-77
2021/03/05 03:06:42;;;;;;;40.13;35.97;;;5.10;88.50;;;;;;5092414;28;20304;-77
2021/03/05 03:09:09;;;;;;;42.95;38.33;;;5.10;87.70;;;;;;5092453;28;20219;-77
2021/03/05 03:11:40;;;;;;;41.63;37.17;;;5.10;87.90;;;;;;5092456;28;20198;-77
2021/03/05 03:14:06;;;;;;;41.42;36.95;;;5.00;88.00;;;;;;5092369;28;20310;-77
2021/03/05 03:16:33;;;;;;;41.90;36.20;;;4.90;88.60;;;;;;5092153;28;20205;-77
2021/03/05 03:19:01;;;;;;;43.00;38.30;;;4.80;89.10;;;;;;5092340;28;20217;-77
2021/03/05 03:21:27;;;;;;;43.45;38.88;;;5.00;89.10;;;;;;5092367;28;20199;-77
2021/03/05 03:23:55;;;;;;;41.47;37.30;;;5.00;88.00;;;;;;5092442;28;20247;-77
2021/03/05 03:26:22;;;;;;;40.30;35.95;;;4.90;88.30;;;;;;5092141;28;20199;-77
2021/03/05 03:28:50;;;;;;;40.58;36.30;;;4.80;88.60;;;;;;5092385;28;20223;-77
2021/03/05 03:31:17;;;;;;;39.55;35.63;;;4.60;89.40;;;;;;5092418;28;20207;-77
2021/03/05 03:33:45;;;;;;;41.63;37.60;;;4.60;90.20;;;;;;5092257;28;20222;-77
2021/03/05 03:36:14;;;;;;;41.90;37.50;;;4.70;89.80;;;;;;5092188;28;20195;-77
2021/03/05 03:38:40;;;;;;;39.63;35.55;;;4.80;89.40;;;;;;5092069;28;20215;-77
2021/03/05 03:41:07;;;;;;;42.15;37.95;;;4.80;89.20;;;;;;5092274;28;20202;-77
2021/03/05 03:43:34;;;;;;;43.30;38.60;;;4.70;89.20;;;;;;5092513;28;20196;-77
2021/03/05 03:46:00;;;;;;;40.25;36.30;;;4.60;89.70;;;;;;5092368;28;20257;-77
2021/03/05 03:48:31;;;;;;;42.05;37.88;;;4.60;90.10;;;;;;5092740;28;20223;-77
2021/03/05 03:51:02;;;;;;;41.10;36.90;;;4.50;89.90;;;;;;5092233;28;20205;-77
2021/03/05 03:53:30;;;;;;;39.92;36.03;;;4.60;90.20;;;;;;5093525;28;20249;-77
2021/03/05 03:55:57;;;;;;;49.00;37.42;;;4.70;89.90;;;;;;5095883;28;20203;-77
2021/03/05 03:58:26;;;;;;;41.83;37.42;;;4.70;89.40;;;;;;5095516;28;20219;-77
2021/03/05 04:00:54;;;;;;;39.47;35.38;;;4.70;89.40;;;;;;5095692;28;20218;-77
2021/03/05 04:03:25;;;;;;;39.17;35.25;;;4.50;90.80;;;;;;5095534;28;20207;-77
2021/03/05 04:05:53;;;;;;;37.03;33.38;;;4.60;90.80;;;;;;5095433;28;20202;-77
2021/03/05 04:08:20;;;;;;;38.28;34.47;;;4.60;89.70;;;;;;5095642;28;20219;-78
2021/03/05 04:10:48;;;;;;;37.17;33.63;;;4.50;90.30;;;;;;5095571;28;20487;-77
2021/03/05 04:13:16;;;;;;;35.38;32.28;;;4.60;90.30;;;;;;5095349;28;20322;-77
2021/03/05 04:15:43;;;;;;;35.70;32.60;;;4.60;89.80;;;;;;5095263;28;20191;-77
2021/03/05 04:18:09;;;;;;;36.63;33.50;;;4.60;89.90;;;;;;5095148;28;20306;-77
2021/03/05 04:20:38;;;;;;;34.05;31.25;;;4.50;90.10;;;;;;5095316;28;20194;-77
2021/03/05 04:23:06;;;;;;;34.78;31.77;;;4.50;90.10;;;;;;5095196;28;20572;-77
2021/03/05 04:25:33;;;;;;;34.35;31.42;;;4.40;89.90;;;;;;5094924;28;20569;-77
2021/03/05 04:28:00;;;;;;;34.75;31.77;;;4.30;90.50;;;;;;5095338;28;20196;-77
2021/03/05 04:30:27;;;;;;;35.42;32.28;;;4.40;90.90;;;;;;5095188;28;20199;-77
2021/03/05 04:32:54;;;;;;;34.75;31.67;;;4.30;91.00;;;;;;5094797;28;20761;-77
2021/03/05 04:35:21;;;;;;;35.30;31.73;;;4.30;91.70;;;;;;5095018;28;20534;-79
2021/03/05 04:37:47;;;;;;;34.45;31.35;;;4.40;91.00;;;;;;5094767;28;20664;-77
2021/03/05 04:40:14;;;;;;;37.58;34.38;;;4.30;90.80;;;;;;5094569;28;20202;-77
2021/03/05 04:42:40;;;;;;;34.22;31.17;;;4.40;91.10;;;;;;5094950;28;20297;-77
2021/03/05 04:45:11;;;;;;;31.65;28.85;;;4.30;90.70;;;;;;5094484;28;20210;-77
2021/03/05 04:47:37;;;;;;;35.05;31.98;;;4.20;91.20;;;;;;5094493;28;20199;-77
2021/03/05 04:50:05;;;;;;;34.28;31.20;;;4.30;91.30;;;;;;5094708;28;20219;-77
2021/03/05 04:52:32;;;;;;;33.83;30.75;;;4.30;91.20;;;;;;5094706;28;20195;-77
2021/03/05 04:54:58;;;;;;;33.67;30.98;;;4.30;91.20;;;;;;5094608;28;20576;-77
2021/03/05 04:57:24;;;;;;;33.92;31.05;;;4.30;91.30;;;;;;5094353;28;20195;-77
2021/03/05 04:59:51;;;;;;;33.63;30.73;;;4.30;90.80;;;;;;5094414;28;20219;-77
2021/03/05 05:02:18;;;;;;;35.35;32.35;;;4.30;91.20;;;;;;5094434;28;20196;-77
2021/03/05 05:04:44;;;;;;;33.20;30.38;;;4.40;90.80;;;;;;5093587;28;20233;-77
2021/03/05 05:07:11;;;;;;;34.42;31.48;;;4.30;90.60;;;;;;5094379;28;20199;-77
2021/03/05 05:09:37;;;;;;;34.90;31.80;;;4.40;90.80;;;;;;5094339;28;20306;-77
2021/03/05 05:12:04;;;;;;;33.75;30.85;;;4.40;90.60;;;;;;5094218;28;20195;-77
2021/03/05 05:14:30;;;;;;;33.17;30.17;;;4.40;90.20;;;;;;5094070;28;20215;-77
2021/03/05 05:16:57;;;;;;;33.05;30.27;;;4.40;90.40;;;;;;5093985;28;20195;-77
2021/03/05 05:19:24;;;;;;;32.40;29.65;;;4.40;90.60;;;;;;5094083;28;20310;-77
2021/03/05 05:21:50;;;;;;;30.48;27.88;;;4.40;89.80;;;;;;5094063;28;20203;-77
2021/03/05 05:24:17;;;;;;;32.15;29.35;;;4.40;90.40;;;;;;5094146;28;20188;-77
2021/03/05 05:26:43;;;;;;;33.35;30.35;;;4.50;90.20;;;;;;5093844;28;20206;-77
2021/03/05 05:29:09;;;;;;;32.55;29.90;;;4.60;89.80;;;;;;5093802;28;20215;-77
2021/03/05 05:31:36;;;;;;;31.63;28.88;;;4.50;89.50;;;;;;5093839;28;20607;-77
2021/03/05 05:34:02;;;;;;;32.22;29.33;;;4.50;89.50;;;;;;5093793;28;20251;-77
2021/03/05 05:36:29;;;;;;;33.80;30.63;;;4.50;89.50;;;;;;5093648;28;20207;-77
2021/03/05 05:38:56;;;;;;;31.75;29.05;;;4.60;89.40;;;;;;5093945;28;20221;-77
2021/03/05 05:41:24;;;;;;;33.08;30.05;;;4.50;88.90;;;;;;5093775;28;20316;-77
2021/03/05 05:43:50;;;;;;;33.17;30.27;;;4.40;89.10;;;;;;5093470;28;20191;-77
2021/03/05 05:46:19;;;;;;;33.83;30.98;;;4.50;89.50;;;;;;5093690;28;20556;-78
2021/03/05 05:48:47;;;;;;;32.00;29.30;;;4.60;89.40;;;;;;5093687;28;20223;-78
2021/03/05 05:51:17;;;;;;;30.85;28.30;;;4.60;88.70;;;;;;5093721;28;20195;-78
2021/03/05 05:53:46;;;;;;;33.28;30.20;;;4.50;88.60;;;;;;5093633;28;20219;-78
2021/03/05 05:56:14;;;;;;;32.17;29.42;;;4.60;88.90;;;;;;5093340;28;20314;-78
2021/03/05 05:58:41;;;;;;;32.35;29.60;;;4.60;88.60;;;;;;5093523;28;20215;-78
2021/03/05 06:01:08;;;;;;;30.65;28.08;;;4.60;87.60;;;;;;5093536;28;20191;-78
2021/03/05 06:03:35;;;;;;;33.17;30.27;;;4.50;87.90;;;;;;5093467;28;20199;-78
2021/03/05 06:06:02;;;;;;;31.80;28.90;;;4.50;88.30;;;;;;5093276;28;20199;-78
2021/03/05 06:08:29;;;;;;;32.33;29.63;;;4.60;88.40;;;;;;5093261;28;20276;-78
2021/03/05 06:10:57;;;;;;;31.92;29.17;;;4.60;88.10;;;;;;5093453;28;20234;-78
2021/03/05 06:13:25;;;;;;;30.77;28.17;;;4.60;88.10;;;;;;5093344;28;20248;-78
2021/03/05 06:16:14;;;;;;;33.17;30.27;;;4.70;88.10;;;;;;5093318;28;20238;-78
2021/03/05 06:18:41;;;;;;;32.00;29.20;;;4.80;87.90;;;;;;5093348;28;20223;-77
2021/03/05 06:21:07;;;;;;;32.38;29.52;;;4.80;87.40;;;;;;5092972;28;20201;-77
2021/03/05 06:23:34;;;;;;;32.47;29.63;;;4.70;87.50;;;;;;5093280;28;20191;-78
2021/03/05 06:26:03;;;;;;;34.47;31.27;;;4.70;87.50;;;;;;5092962;28;20201;-77
2021/03/05 06:28:30;;;;;;;32.03;29.13;;;4.70;87.30;;;;;;5092991;28;20215;-78
2021/03/05 06:30:56;;;;;;;31.35;28.50;;;4.60;87.10;;;;;;5093038;28;20195;-78
2021/03/05 06:33:24;;;;;;;32.70;29.85;;;4.60;87.70;;;;;;5094785;28;20247;-77
2021/03/05 06:35:51;;;;;;;33.00;30.10;;;4.50;88.20;;;;;;5099518;28;20197;-77
2021/03/05 06:38:40;;;;;;;34.08;31.08;;;4.60;87.70;;;;;;5093213;28;20219;-78
2021/03/05 06:41:19;;;;;;;34.53;31.60;;;4.60;87.50;;;;;;5092932;28;20226;-77
2021/03/05 06:43:47;;;;;;;34.45;31.35;;;4.60;88.00;;;;;;5092708;28;20340;-77
2021/03/05 06:46:29;;;;;;;32.05;29.27;;;4.60;87.50;;;;;;5092872;28;20297;-77
2021/03/05 06:48:56;;;;;;;31.42;28.80;;;4.60;87.50;;;;;;5092920;28;20576;-78
2021/03/05 06:51:23;;;;;;;32.60;29.77;;;4.60;87.30;;;;;;5093160;28;20199;-77
2021/03/05 06:53:49;;;;;;;31.83;29.02;;;4.50;87.80;;;;;;5095675;28;20214;-77
2021/03/05 06:56:27;;;;;;;32.83;29.92;;;4.60;87.60;;;;;;5096814;28;20253;-77
2021/03/05 06:59:04;;;;;;;33.70;30.58;;;4.60;87.70;;;;;;5096204;28;20301;-77
2021/03/05 07:01:31;;;;;;;32.72;29.50;;;4.60;88.20;;;;;;5094465;28;20274;-78
2021/03/05 07:04:08;;;;;;;31.38;28.67;;;4.60;87.90;;;;;;5093078;28;20741;-78
2021/03/05 07:06:35;;;;;;;31.63;29.02;;;4.40;88.40;;;;;;5092833;28;20648;-78
2021/03/05 07:09:02;;;;;;;31.13;27.90;;;4.50;88.60;;;;;;5092566;28;20229;-77
2021/03/05 07:11:38;;;;;;;31.60;28.33;;;4.40;88.40;;;;;;5093033;28;20199;-78
2021/03/05 07:14:06;;;;;;;33.13;30.10;;;4.30;89.10;;;;;;5092702;28;20241;-78
2021/03/05 07:16:43;;;;;;;32.03;28.95;;;4.30;89.10;;;;;;5092622;28;20597;-78
2021/03/05 07:19:11;;;;;;;33.38;30.25;;;4.30;89.40;;;;;;5092610;28;20215;-78
2021/03/05 07:21:40;;;;;;;33.55;30.40;;;4.30;89.60;;;;;;5092525;28;20685;-78
2021/03/05 07:24:08;;;;;;;33.33;30.30;;;4.40;89.60;;;;;;5092505;28;20236;-78
2021/03/05 07:26:43;;;;;;;31.83;28.92;;;4.40;89.00;;;;;;5092396;28;20209;-77
2021/03/05 07:29:15;;;;;;;33.20;30.13;;;4.40;88.90;;;;;;5095030;28;20230;-78
2021/03/05 07:31:43;;;;;;;31.35;28.48;;;4.40;88.80;;;;;;5096260;28;20691;-78
2021/03/05 07:34:16;;;;;;;32.60;29.60;;;4.50;88.30;;;;;;5096259;28;20238;-78
2021/03/05 07:36:48;;;;;;;33.50;30.40;;;4.40;88.30;;;;;;5096071;28;20248;-77
2021/03/05 07:39:21;;;;;;;34.33;31.40;;;4.20;89.70;;;;;;5096112;28;20222;-78
2021/03/05 07:41:51;;;;;;;34.65;31.25;;;4.40;89.10;;;;;;5096313;28;20290;-78
2021/03/05 07:44:18;;;;;;;31.70;28.65;;;4.40;88.90;;;;;;5095967;28;20191;-78
2021/03/05 07:46:45;;;;;;;33.35;30.17;;;4.40;88.20;;;;;;5095699;28;20195;-78
2021/03/05 07:49:13;;;;;;;33.70;30.58;;;4.50;88.10;;;;;;5095935;28;20215;-78
2021/03/05 07:51:40;;;;;;;32.60;29.70;;;4.50;87.40;;;;;;5096050;28;20217;-78
2021/03/05 07:54:07;;;;;;;32.15;29.15;;;4.40;87.60;;;;;;5095838;28;20306;-78
2021/03/05 07:56:44;;;;;;;32.42;29.45;;;4.40;88.50;;;;;;5095637;28;20557;-78
2021/03/05 07:59:38;;;;;;;33.50;30.35;;;4.50;87.90;;;;;;5095756;28;20215;-78
2021/03/05 08:02:05;;;;;;;34.28;31.20;;;4.40;88.10;;;;;;5095893;28;20734;-77
2021/03/05 08:04:59;;;;;;;31.77;28.88;;;4.40;88.30;;;;;;5095564;28;20661;-78
2021/03/05 08:07:27;;;;;;;33.00;30.00;;;4.50;87.60;;;;;;5095343;28;20260;-78
2021/03/05 08:09:56;;;;;;;33.83;30.73;;;4.50;87.40;;;;;;5095517;28;20251;-78
2021/03/05 08:12:39;;;;;;;33.42;30.42;;;4.60;87.20;;;;;;5095570;28;20231;-78
2021/03/05 08:15:25;;;;;;;33.92;30.95;;;4.60;87.90;;;;;;5095498;28;20219;-77
2021/03/05 08:17:53;;;;;;;33.78;30.95;;;4.80;87.50;;;;;;5095127;28;20290;-78
2021/03/05 08:20:52;;;;;;;33.78;30.77;;;4.80;86.10;;;;;;5095455;28;20192;-77
2021/03/05 08:23:19;;;;;;;34.50;31.45;;;4.80;86.50;;;;;;5095224;28;20282;-77
2021/03/05 08:26:03;;;;;;;36.10;32.50;;;4.80;86.70;;;;;;5095152;28;20198;-78
2021/03/05 08:28:45;;;;;;;34.90;31.50;;;4.90;86.50;;;;;;5095459;28;20223;-78
2021/03/05 08:31:34;;;;;;;34.55;31.63;;;4.90;86.00;;;;;;5095377;28;20191;-77
2021/03/05 08:34:29;;;;;;;33.78;30.92;;;4.90;85.80;;;;;;5101268;28;20223;-77
2021/03/05 08:36:56;;;;;;;31.23;28.70;;;5.00;85.90;;;;;;5096136;28;20278;-78
2021/03/05 08:39:24;;;;;;;32.85;29.85;;;4.90;85.80;;;;;;5093902;28;20223;-78
2021/03/05 08:42:05;;;;;;;30.33;27.60;;;5.00;85.50;;;;;;5094758;28;20203;-78
2021/03/05 08:44:31;;;;;;;33.60;30.70;;;5.00;85.30;;;;;;5094712;28;20195;-78
2021/03/05 08:47:06;;;;;;;32.30;29.20;;;5.00;85.10;;;;;;5094574;28;20202;-78
2021/03/05 08:49:33;;;;;;;32.00;29.38;;;5.00;85.40;;;;;;5094646;28;20215;-78
2021/03/05 08:52:00;;;;;;;31.40;28.85;;;5.00;85.70;;;;;;5094951;28;20208;-78
2021/03/05 08:54:26;;;;;;;31.20;28.40;;;4.70;84.90;;;;;;5094801;28;20580;-78
2021/03/05 08:56:54;;;;;;;31.10;28.45;;;4.90;85.50;;;;;;5094412;28;20207;-78
2021/03/05 08:59:21;;;;;;;30.67;28.17;;;4.90;86.20;;;;;;5094612;28;20255;-77
2021/03/05 09:01:47;;;;;;;32.88;30.08;;;4.90;86.20;;;;;;5094436;28;20561;-77
2021/03/05 09:04:16;;;;;;;31.33;28.08;;;4.90;85.60;;;;;;5094511;28;20210;-78
2021/03/05 09:06:53;;;;;;;31.40;28.70;;;5.00;86.00;;;;;;5094301;28;20199;-78
2021/03/05 09:09:21;;;;;;;30.08;27.58;;;5.20;85.80;;;;;;5094400;28;20211;-78
2021/03/05 09:12:09;;;;;;;31.10;28.27;;;5.20;85.00;;;;;;5094425;28;20198;-78
2021/03/05 09:14:36;;;;;;;32.13;29.63;;;5.20;84.70;;;;;;5094432;28;20215;-78
2021/03/05 09:17:03;;;;;;;30.73;28.05;;;5.20;84.00;;;;;;5094080;28;20242;-78
2021/03/05 09:19:35;;;;;;;32.45;29.73;;;5.20;84.20;;;;;;5094094;28;20215;-78
2021/03/05 09:22:13;;;;;;;32.08;29.48;;;5.20;84.30;;;;;;5094114;28;20210;-77
2021/03/05 09:25:05;;;;;;;31.75;29.05;;;5.20;84.70;;;;;;5094174;28;20234;-78
2021/03/05 09:27:34;;;;;;;29.70;27.25;;;5.40;83.50;;;;;;5094084;28;20200;-78
2021/03/05 09:30:13;;;;;;;32.05;29.35;;;5.10;83.40;;;;;;5093966;28;20221;-78
2021/03/05 09:32:46;;;;;;;29.67;27.08;;;5.10;84.10;;;;;;5093979;28;20199;-78
2021/03/05 09:35:14;;;;;;;31.58;29.02;;;5.10;83.70;;;;;;5093841;28;20222;-78
2021/03/05 09:37:40;;;;;;;30.15;27.45;;;5.20;83.50;;;;;;5093889;28;20211;-78
2021/03/05 09:40:11;;;;;;;30.60;28.10;;;5.20;83.40;;;;;;5093458;28;20223;-77
2021/03/05 09:42:45;;;;;;;31.42;28.83;;;5.10;83.50;;;;;;5093879;28;20199;-78
2021/03/05 09:45:12;;;;;;;31.65;28.85;;;5.10;84.20;;;;;;5093375;28;20280;-77
2021/03/05 09:47:46;;;;;;;31.05;28.67;;;5.00;83.90;;;;;;5093754;28;20278;-78
2021/03/05 09:50:21;;;;;;;31.42;28.83;;;5.10;83.60;;;;;;5093603;28;20676;-78
2021/03/05 09:52:48;;;;;;;30.77;28.40;;;5.30;82.80;;;;;;5093436;28;20210;-78
2021/03/05 09:55:28;;;;;;;31.33;28.83;;;5.50;81.80;;;;;;5093503;28;20308;-78
2021/03/05 09:57:55;;;;;;;30.88;28.38;;;5.70;79.50;;;;;;5093439;28;20212;-78
2021/03/05 10:00:29;;;;;;;31.38;28.73;;;5.80;79.50;;;;;;5093552;28;20195;-78
2021/03/05 10:03:03;;;;;;;31.90;29.15;;;5.90;79.30;;;;;;5096422;28;20658;-78
2021/03/05 10:05:31;;;;;;;31.48;28.88;;;5.80;79.50;;;;;;5099789;28;20192;-77
2021/03/05 10:07:58;;;;;;;32.80;30.10;;;5.80;80.50;;;;;;5096778;28;20732;-77
2021/03/05 10:10:24;;;;;;;31.52;29.15;;;6.10;79.20;;;;;;5093664;28;20219;-78
2021/03/05 10:12:54;;;;;;;33.75;30.80;;;6.20;78.60;;;;;;5093444;28;20195;-78
2021/03/05 10:15:21;;;;;;;31.58;28.92;;;6.20;78.30;;;;;;5093252;28;20224;-78
2021/03/05 10:17:48;;;;;;;34.25;31.67;;;6.00;77.50;;;;;;5092963;28;20222;-78
2021/03/05 10:20:15;;;;;;;31.65;28.95;;;5.90;78.40;;;;;;5093132;28;20250;-78
2021/03/05 10:22:42;;;;;;;33.17;30.40;;;5.90;78.90;;;;;;5093039;28;20201;-78
2021/03/05 10:25:12;;;;;;;33.05;30.25;;;5.90;79.00;;;;;;5092968;28;20189;-77
2021/03/05 10:27:42;;;;;;;31.90;29.50;;;6.00;79.30;;;;;;5092961;28;20250;-77
2021/03/05 10:30:09;;;;;;;31.92;29.17;;;6.20;78.00;;;;;;5094832;28;20306;-78
2021/03/05 10:32:39;;;;;;;32.30;29.58;;;6.20;78.00;;;;;;5099588;28;20200;-78
2021/03/05 10:35:10;;;;;;;31.35;28.95;;;6.20;78.50;;;;;;5092812;28;20219;-78
2021/03/05 10:37:37;;;;;;;33.13;30.42;;;6.00;78.90;;;;;;5092805;28;20197;-78
2021/03/05 10:40:07;;;;;;;33.83;30.92;;;5.90;79.00;;;;;;5092429;28;20227;-78
2021/03/05 10:42:34;;;;;;;32.45;30.02;;;5.90;78.60;;;;;;5093000;28;20196;-78
2021/03/05 10:45:01;;;;;;;34.38;31.63;;;5.90;79.20;;;;;;5092683;28;20200;-78
2021/03/05 10:47:29;;;;;;;33.55;31.13;;;6.00;78.70;;;;;;5092612;28;20696;-78
2021/03/05 10:49:55;;;;;;;31.05;28.80;;;5.80;79.20;;;;;;5092848;28;20212;-78
2021/03/05 10:52:22;;;;;;;32.08;29.67;;;5.80;78.30;;;;;;5092971;28;20204;-78
2021/03/05 10:54:49;;;;;;;32.40;29.70;;;6.00;78.30;;;;;;5092628;28;20619;-78
2021/03/05 10:57:18;;;;;;;33.70;30.95;;;5.80;78.00;;;;;;5092546;28;20584;-78
2021/03/05 10:59:44;;;;;;;33.63;31.05;;;5.70;78.80;;;;;;5092711;28;20222;-78
2021/03/05 11:02:11;;;;;;;34.97;32.35;;;5.70;80.00;;;;;;5092614;28;20282;-78
2021/03/05 11:04:38;;;;;;;33.70;30.92;;;5.70;78.70;;;;;;5096330;28;20200;-78
2021/03/05 11:07:04;;;;;;;34.13;31.15;;;5.70;78.70;;;;;;5096669;28;20210;-78
2021/03/05 11:09:31;;;;;;;34.42;31.63;;;5.90;78.10;;;;;;5096936;28;20314;-78
2021/03/05 11:11:58;;;;;;;32.83;30.40;;;5.80;77.50;;;;;;5096803;28;20550;-78
2021/03/05 11:14:25;;;;;;;33.92;31.13;;;5.80;77.20;;;;;;5096687;28;20220;-78
2021/03/05 11:16:52;;;;;;;32.92;30.00;;;5.80;77.90;;;;;;5096548;28;20657;-78
2021/03/05 11:19:19;;;;;;;33.85;30.80;;;5.70;78.30;;;;;;5096874;28;20213;-78
2021/03/05 11:21:46;;;;;;;34.28;31.67;;;5.90;77.00;;;;;;5096804;28;20218;-78
2021/03/05 11:24:12;;;;;;;32.33;29.70;;;5.90;77.80;;;;;;5096586;28;20278;-78
2021/03/05 11:26:39;;;;;;;33.63;30.83;;;5.80;77.80;;;;;;5096406;28;20201;-77
2021/03/05 11:29:05;;;;;;;33.85;31.13;;;5.80;78.40;;;;;;5096272;28;20261;-78
2021/03/05 11:31:33;;;;;;;33.47;30.85;;;5.80;77.70;;;;;;5096407;28;20192;-78
2021/03/05 11:34:00;;;;;;;34.28;31.58;;;5.70;78.00;;;;;;5096261;28;20224;-78
2021/03/05 11:36:26;;;;;;;32.60;29.85;;;5.70;78.60;;;;;;5095978;28;20206;-78
2021/03/05 11:38:53;;;;;;;31.98;29.27;;;5.90;78.40;;;;;;5095872;28;20215;-78
2021/03/05 11:41:20;;;;;;;33.30;30.48;;;6.00;78.00;;;;;;5096270;28;20199;-78
2021/03/05 11:43:49;;;;;;;32.75;30.17;;;6.10;77.30;;;;;;5096049;28;20192;-78
2021/03/05 11:46:16;;;;;;;33.60;30.30;;;6.00;75.60;;;;;;5095539;28;20195;-78
2021/03/05 11:48:44;;;;;;;33.28;30.48;;;5.90;76.20;;;;;;5096005;28;20221;-77
2021/03/05 11:51:10;;;;;;;33.83;31.23;;;5.80;76.50;;;;;;5096122;28;20283;-77
2021/03/05 11:53:37;;;;;;;35.28;32.40;;;5.80;76.50;;;;;;5095881;28;20612;-78
2021/03/05 11:56:04;;;;;;;32.40;29.83;;;5.80;76.20;;;;;;5095667;28;20758;-78
2021/03/05 11:58:31;;;;;;;32.53;29.75;;;5.80;74.60;;;;;;5095600;28;20769;-78
2021/03/05 12:00:57;;;;;;;34.10;31.40;;;5.90;74.70;;;;;;5095702;28;20198;-78
2021/03/05 12:03:23;;;;;;;35.30;32.60;;;5.80;75.20;;;;;;5095472;28;20207;-78
2021/03/05 12:05:51;;;;;;;33.28;30.58;;;5.80;76.00;;;;;;5095769;28;20618;-78
2021/03/05 12:08:17;;;;;;;34.00;30.77;;;5.70;76.00;;;;;;5095585;28;20577;-77
2021/03/05 12:10:43;;;;;;;34.17;31.38;;;5.70;76.60;;;;;;5095513;28;20664;-78
2021/03/05 12:13:11;;;;;;;33.35;30.73;;;5.80;76.60;;;;;;5095428;28;20191;-77
2021/03/05 12:15:37;;;;;;;33.70;30.90;;;6.20;75.00;;;;;;5095197;28;20219;-78
2021/03/05 12:18:04;;;;;;;31.88;29.27;;;6.30;74.20;;;;;;5095267;28;20198;-77
2021/03/05 12:20:31;;;;;;;33.97;31.05;;;6.30;73.80;;;;;;5095417;28;20191;-78
2021/03/05 12:22:59;;;;;;;34.08;31.30;;;6.30;73.70;;;;;;5095465;28;20287;-78
2021/03/05 12:25:25;;;;;;;33.00;30.60;;;6.30;73.70;;;;;;5095147;28;20603;-78
2021/03/05 12:27:52;;;;;;;33.97;31.15;;;6.30;73.80;;;;;;5095214;28;20562;-78
2021/03/05 12:30:19;;;;;;;34.42;31.75;;;6.30;74.10;;;;;;5102774;28;20201;-78
2021/03/05 12:32:45;;;;;;;34.40;31.50;;;6.30;74.40;;;;;;5096275;28;20213;-78
2021/03/05 12:35:13;;;;;;;34.92;31.92;;;6.30;73.70;;;;;;5095110;28;20580;-78
2021/03/05 12:37:40;;;;;;;32.72;30.15;;;6.40;75.10;;;;;;5094950;28;20199;-78
2021/03/05 12:40:08;;;;;;;35.90;32.88;;;6.50;73.70;;;;;;5094448;28;20253;-78
2021/03/05 12:42:35;;;;;;;36.20;33.20;;;6.70;73.50;;;;;;5095123;28;20201;-78
2021/03/05 12:45:04;;;;;;;32.67;30.02;;;6.80;72.40;;;;;;5094700;28;20203;-78